Pilot No 5 — WDC3840 — position and weather

sailwx.info

Track history (hours):
 
Tides and Currents Weather Stations Pressure Air Temp Water Temp Dewpoint Dewpoint Depression Visibility Wind Speed Wind Dir Waves Ship Positions

Pilot No 5

More information available from US FCC via Universal Licensing System and Coast Guard Vessel Documentation Center.

Last reported at 2014-Sep-30 10:29 UTC. Time now 2014-Oct-01 00:07 UTC.
Position N 26°06' W 080°07'.

Length 6 m.

Type: Pilot. MMSI: 367015090.

Date/timePositionNaut miles runAvg speedWind from/ knotsBaromVisibWave heightAir tempDewpointWater temp
2014-Sep-30 10:29N 26°06' W 080°07'1 0.8
2014-Sep-30 09:33N 26°05' W 080°07'1 0.1
2014-Sep-30 05:05N 26°06' W 080°07'1 1.2
2014-Sep-30 04:33N 26°05' W 080°07'1 0.5
2014-Sep-30 03:33N 26°06' W 080°07'2 2.4
2014-Sep-30 02:34N 26°05' W 080°05'0 0.1
2014-Sep-30 01:34N 26°05' W 080°05'3 2.6
2014-Sep-30 00:33N 26°06' W 080°07'0 0.0
2014-Sep-29 23:33N 26°06' W 080°07'1 1.0
2014-Sep-29 22:33N 26°05' W 080°07'1 1.4
2014-Sep-29 21:33N 26°05' W 080°05'1 1.0
2014-Sep-29 20:33N 26°06' W 080°07'0 0.3
2014-Sep-29 19:33N 26°06' W 080°07'1 0.3
2014-Sep-29 17:29N 26°06' W 080°07'2 1.8
2014-Sep-29 16:33N 26°06' W 080°06'1 1.3
2014-Sep-29 15:33N 26°06' W 080°07'0 0.1
2014-Sep-29 14:33N 26°06' W 080°07'1 0.3
2014-Sep-29 11:33N 26°06' W 080°06'1 0.8
2014-Sep-29 10:33N 26°05' W 080°05'1 0.6
2014-Sep-29 09:33N 26°06' W 080°06'2 1.2
2014-Sep-29 08:15N 26°06' W 080°07'3 4.4
2014-Sep-29 07:33N 26°06' W 080°04'3 3.0
2014-Sep-29 06:33N 26°06' W 080°07'0 0.0
2014-Sep-28 09:32N 26°06' W 080°07'1 0.8
2014-Sep-28 08:33N 26°05' W 080°07'1 0.3
2014-Sep-28 05:16N 26°06' W 080°07'1 0.8
2014-Sep-28 04:33N 26°06' W 080°07'0 0.0
2014-Sep-26 10:33N 26°05' W 080°07'0 0.1
2014-Sep-26 08:33N 26°06' W 080°07'1 0.8
2014-Sep-26 07:33N 26°06' W 080°07'2 1.6
2014-Sep-26 06:33N 26°05' W 080°07'1 0.8
2014-Sep-26 05:33N 26°05' W 080°07'0 0.1
2014-Sep-26 04:33N 26°05' W 080°07'1 0.0
2014-Sep-25 11:28N 26°06' W 080°07'1 0.9
2014-Sep-25 10:33N 26°05' W 080°07'1 1.1
2014-Sep-25 09:33N 26°06' W 080°06'1 1.0
2014-Sep-25 08:33N 26°05' W 080°07'0 0.2
2014-Sep-25 06:33N 26°06' W 080°07'1 1.0
2014-Sep-25 05:33N 26°06' W 080°06'2 1.6
2014-Sep-25 04:33N 26°06' W 080°07'2 1.1
2014-Sep-25 02:33N 26°05' W 080°05'2 1.7
2014-Sep-25 01:33N 26°05' W 080°07'1 0.9
2014-Sep-25 00:33N 26°06' W 080°07'1 0.8
2014-Sep-24 23:33N 26°05' W 080°07'1 0.9
2014-Sep-24 22:33N 26°06' W 080°06'1 1.2
2014-Sep-24 21:33N 26°06' W 080°07'0 0.4
2014-Sep-24 20:33N 26°06' W 080°07'0 0.4
2014-Sep-24 19:34N 26°06' W 080°07'1 1.0
2014-Sep-24 18:33N 26°05' W 080°07'0 0.3
2014-Sep-24 17:33N 26°05' W 080°07'0 0.1
2014-Sep-24 13:33N 26°06' W 080°07'1 1.0
2014-Sep-24 12:33N 26°06' W 080°06'1 1.1
2014-Sep-24 11:33N 26°06' W 080°07'0 0.0
2014-Sep-24 02:10N 26°06' W 080°07'0 0.1
2014-Sep-24 01:33N 26°06' W 080°07'0 0.3
2014-Sep-24 00:33N 26°06' W 080°07'3 0.6
2014-Sep-23 19:34N 26°05' W 080°04'3 0.1
2014-Sep-22 20:31N 26°06' W 080°07'3 3.0
2014-Sep-22 19:33N 26°07' W 080°04'3 0.1
2014-Sep-21 02:33N 26°06' W 080°07'0 0.5
2014-Sep-21 01:33N 26°06' W 080°07'0 0.2
2014-Sep-21 00:11N 26°06' W 080°07'2 2.6
2014-Sep-20 23:33N 26°06' W 080°05'2 2.3
2014-Sep-20 22:33N 26°06' W 080°03'4 4.1
2014-Sep-20 21:33N 26°06' W 080°07'1 0.7
2014-Sep-20 20:33N 26°06' W 080°07'0 0.4
2014-Sep-20 19:33N 26°06' W 080°07'  
Track history (hours):
 
Tides and Currents Weather Stations Pressure Air Temp Water Temp Dewpoint Dewpoint Depression Visibility Wind Speed Wind Dir Waves Ship Positions

Pilot No 5

More information available from US FCC via Universal Licensing System and Coast Guard Vessel Documentation Center.

Last reported at 2014-Sep-30 10:29 UTC. Time now 2014-Oct-01 00:07 UTC.
Position N 26°06' W 080°07'.

Length 6 m.

Type: Pilot. MMSI: 367015090.

Date/timePositionNaut miles runAvg speedWind from/ knotsBaromVisibWave heightAir tempDewpointWater temp
2014-Sep-30 10:29N 26°06' W 080°07'1 0.8
2014-Sep-30 09:33N 26°05' W 080°07'1 0.1
2014-Sep-30 05:05N 26°06' W 080°07'1 1.2
2014-Sep-30 04:33N 26°05' W 080°07'1 0.5
2014-Sep-30 03:33N 26°06' W 080°07'2 2.4
2014-Sep-30 02:34N 26°05' W 080°05'0 0.1
2014-Sep-30 01:34N 26°05' W 080°05'3 2.6
2014-Sep-30 00:33N 26°06' W 080°07'0 0.0
2014-Sep-29 23:33N 26°06' W 080°07'1 1.0
2014-Sep-29 22:33N 26°05' W 080°07'1 1.4
2014-Sep-29 21:33N 26°05' W 080°05'1 1.0
2014-Sep-29 20:33N 26°06' W 080°07'0 0.3
2014-Sep-29 19:33N 26°06' W 080°07'1 0.3
2014-Sep-29 17:29N 26°06' W 080°07'2 1.8
2014-Sep-29 16:33N 26°06' W 080°06'1 1.3
2014-Sep-29 15:33N 26°06' W 080°07'0 0.1
2014-Sep-29 14:33N 26°06' W 080°07'1 0.3
2014-Sep-29 11:33N 26°06' W 080°06'1 0.8
2014-Sep-29 10:33N 26°05' W 080°05'1 0.6
2014-Sep-29 09:33N 26°06' W 080°06'2 1.2
2014-Sep-29 08:15N 26°06' W 080°07'3 4.4
2014-Sep-29 07:33N 26°06' W 080°04'3 3.0
2014-Sep-29 06:33N 26°06' W 080°07'0 0.0
2014-Sep-28 09:32N 26°06' W 080°07'1 0.8
2014-Sep-28 08:33N 26°05' W 080°07'1 0.3
2014-Sep-28 05:16N 26°06' W 080°07'1 0.8
2014-Sep-28 04:33N 26°06' W 080°07'0 0.0
2014-Sep-26 10:33N 26°05' W 080°07'0 0.1
2014-Sep-26 08:33N 26°06' W 080°07'1 0.8
2014-Sep-26 07:33N 26°06' W 080°07'2 1.6
2014-Sep-26 06:33N 26°05' W 080°07'1 0.8
2014-Sep-26 05:33N 26°05' W 080°07'0 0.1
2014-Sep-26 04:33N 26°05' W 080°07'1 0.0
2014-Sep-25 11:28N 26°06' W 080°07'1 0.9
2014-Sep-25 10:33N 26°05' W 080°07'1 1.1
2014-Sep-25 09:33N 26°06' W 080°06'1 1.0
2014-Sep-25 08:33N 26°05' W 080°07'0 0.2
2014-Sep-25 06:33N 26°06' W 080°07'1 1.0
2014-Sep-25 05:33N 26°06' W 080°06'2 1.6
2014-Sep-25 04:33N 26°06' W 080°07'2 1.1
2014-Sep-25 02:33N 26°05' W 080°05'2 1.7
2014-Sep-25 01:33N 26°05' W 080°07'1 0.9
2014-Sep-25 00:33N 26°06' W 080°07'1 0.8
2014-Sep-24 23:33N 26°05' W 080°07'1 0.9
2014-Sep-24 22:33N 26°06' W 080°06'1 1.2
2014-Sep-24 21:33N 26°06' W 080°07'0 0.4
2014-Sep-24 20:33N 26°06' W 080°07'0 0.4
2014-Sep-24 19:34N 26°06' W 080°07'1 1.0
2014-Sep-24 18:33N 26°05' W 080°07'0 0.3
2014-Sep-24 17:33N 26°05' W 080°07'0 0.1
2014-Sep-24 13:33N 26°06' W 080°07'1 1.0
2014-Sep-24 12:33N 26°06' W 080°06'1 1.1
2014-Sep-24 11:33N 26°06' W 080°07'0 0.0
2014-Sep-24 02:10N 26°06' W 080°07'0 0.1
2014-Sep-24 01:33N 26°06' W 080°07'0 0.3
2014-Sep-24 00:33N 26°06' W 080°07'3 0.6
2014-Sep-23 19:34N 26°05' W 080°04'3 0.1
2014-Sep-22 20:31N 26°06' W 080°07'3 3.0
2014-Sep-22 19:33N 26°07' W 080°04'3 0.1
2014-Sep-21 02:33N 26°06' W 080°07'0 0.5
2014-Sep-21 01:33N 26°06' W 080°07'0 0.2
2014-Sep-21 00:11N 26°06' W 080°07'2 2.6
2014-Sep-20 23:33N 26°06' W 080°05'2 2.3
2014-Sep-20 22:33N 26°06' W 080°03'4 4.1
2014-Sep-20 21:33N 26°06' W 080°07'1 0.7
2014-Sep-20 20:33N 26°06' W 080°07'0 0.4
2014-Sep-20 19:33N 26°06' W 080°07'  

Dump ship's entire track history